Tropical Cyclones
[Index]
Main Index Home Page Stock Weather Photos Extreme Storms Discussion Storm News and Storm Chasing Reports Tropical Cyclones / Hurricanes / Typhoons Weather Data and Links Wild Fires / Bushfires Weather Observation Techniques Weather Picture Catalogue Tornado Pictures and Reports Stock Video Footage and DVDs for sale
Season 2007-2008 Tropical Cyclone GENE Track Map
Season 2007-2008 Summaries (Operational Data): [AU] [SIO] [SPAC] [SH]
<<- Previous TC | 2007-2008 Season | Next TC ->>

click for intensity scale information  Lat/long Grid: Show Hide

 Date Labels: Show Hide

Operational Tropical Cyclone Data : JTWC Advisories

Name: GENE
Number: 0815

26 Jan 2008 18:00 UTC to 09 Feb 2008 18:00 UTC

    date/time    lat    long     hPa   cat  kts
2008-01-26 18   12.0   179.0    1004         20          
2008-01-27 06   14.5   178.9W   1001         25          
2008-01-27 18   15.3   179.4W                            
2008-01-27 21   16.8   179.3     992         30          
2008-01-28 00   17.0   178.7     990    1    40          
2008-01-28 06   17.4   178.2     990    1    40          
2008-01-28 12   18.1   177.3     985    2    50          
2008-01-28 18   17.6   176.5     985    2    50          
2008-01-29 00   17.9   176.1     980    2    55          
2008-01-29 06   18.5   175.5     985    2    50          
2008-01-29 12   18.7   175.0     990    1    45          
2008-01-29 18   18.5   173.8     990    1    45          
2008-01-30 00   18.5   173.3     980    2    55          
2008-01-30 06   18.6   173.2     970    3    65          
2008-01-30 12   18.6   172.4     970    3    65          
2008-01-30 18   18.8   172.0     970    3    65          
2008-01-31 00   19.1   171.3     965    3    70          
2008-01-31 06   19.4   171.2     955    3    80          
2008-01-31 12   19.5   170.9     955    3    80          
2008-01-31 18   19.8   170.5     945    3    85          
2008-02-01 00   19.9   170.8     945    3    85          
2008-02-01 06   20.4   170.8     945    3    85          
2008-02-01 12   20.5   170.9     950    3    85          
2008-02-01 19   20.9   170.9     950    3    80          
2008-02-02 00   21.5   170.8     960    3    70          
2008-02-02 06   22.0   170.9     970    3    65          
2008-02-02 12   22.1   172.2     975    2    55          
2008-02-02 18   22.8   171.5     975    2    55          
2008-02-03 00   23.0   171.3     975    2    55          
2008-02-03 06   23.8   171.7     985    2    50          
2008-02-03 12   24.5   172.0     985    2    50          
2008-02-03 18   25.2   172.7     970    3    65          
2008-02-04 00   26.1   173.0     970    3    65          
2008-02-04 06   27.1   173.7     975    2    60          
2008-02-04 12   27.5   174.1     975    2    60          
2008-02-04 18   28.0   175.0     975    2    60          
2008-02-05 00   28.4   175.8     976    2    60          
2008-02-05 06   28.7   176.7     978    2    60          
2008-02-05 12   28.2   177.4     975    2    60          
2008-02-05 18   28.0   179.0     976    2    60          
2008-02-06 00   28.9   177.8W    972    3    65          
2008-02-06 06   30.0   175.0W    972    3    65          
2008-02-06 12   31.0   174.0W    972    3    65          
2008-02-06 18   33.0   171.0W    976    3    65          
2008-02-07 06   36.0   168.0W    962    3    65          
2008-02-07 12   38.0   167.0W    960    3    65          
2008-02-07 18   40.0   169.0W    966    2    60          
2008-02-08 00   40.0   170.0W    969    2    50          
2008-02-08 06   40.0   170.0W    972    2    50          
2008-02-08 12   41.0   169.0W    976    2    50          
2008-02-08 18   42.0   168.0W    976    2    50          
2008-02-09 00   44.0   167.0W    983    1    35          
2008-02-09 06   44.0   167.0W    986    1    35          
2008-02-09 18   43.0   164.0W    988    1    35          
Winds are 10-min average.

Tropical cyclone tracks developed by Michael Bath using operational warnings and advisories and Google Maps.


[Australian Severe Weather index] [Copyright Notice] [Email Contacts] [Search This Site] [Privacy Policy]
Document: tropical_cyclone_gene.htm Updated: 2 May 2017